Friday, October 31, 2014, 7:14 AM EDT

KIPT, Williamsport-lycoming County

Location: Montoursville, PA, United States Lat: 41.25
Local Time: 7:14 AM EDT (11:14 GMT) Lon: -76.917
Time Zone: US/Eastern Elev: 528 ft

Show me the last for .
Show Decoded

2014-10-31 06:54 METAR KIPT 311054Z 35003KT 10SM OVC060 03/M01 A3001 RMK AO2 SLP166 T00281006 =
2014-10-31 05:54 METAR KIPT 310954Z AUTO 00000KT 10SM OVC055 02/M01 A3002 RMK AO2 SLP167
                 T00221006 =
2014-10-31 04:54 METAR KIPT 310854Z AUTO 00000KT 10SM OVC055 02/M01 A3002 RMK AO2 SLP168
                 T00221006 58004 =
2014-10-31 03:54 METAR KIPT 310754Z AUTO 00000KT 10SM OVC050 02/M01 A3003 =
2014-10-31 02:54 METAR KIPT 310654Z AUTO 28003KT 10SM FEW050 01/M01 A3003 RMK AO2 SLP173
                 T00111011 =
2014-10-31 01:54 METAR KIPT 310554Z AUTO 00000KT 10SM CLR 02/M01 A3003 RMK AO2 SLP172 T00171011
                 10094 20017 56002 =
2014-10-31 00:54 METAR KIPT 310454Z AUTO 00000KT 10SM CLR 02/M01 A3003 RMK AO2 SLP173 T00221011
                 401330017 =
2014-10-30 23:54 METAR KIPT 310354Z AUTO 35006KT 10SM CLR 03/00 A3003 RMK AO2 SLP173 T00330000 =
2014-10-30 22:54 METAR KIPT 310254Z AUTO 00000KT 10SM CLR 04/00 A3004 RMK AO2 SLP175 T00390000
                 53001 =
2014-10-30 21:54 METAR KIPT 310154Z 00000KT 10SM FEW046 07/01 A3003 RMK AO2 SLP171 T00670006 =
2014-10-30 20:54 METAR KIPT 310054Z 34003KT 10SM OVC048 09/01 A3003 RMK AO2 SLP172 T00890006 =
2014-10-30 19:54 METAR KIPT 302354Z 00000KT 10SM BKN050 OVC060 09/01 A3004 RMK AO2 SLP173
                 T00940006 10133 20094 51008 =
2014-10-30 18:54 METAR KIPT 302254Z 00000KT 10SM OVC055 11/00 A3003 RMK AO2 SLP172 T01060000 =
2014-10-30 17:54 METAR KIPT 302154Z 03003KT 10SM BKN055 11/00 A3002 RMK AO2 SLP166 T01110000 =
2014-10-30 16:54 METAR KIPT 302054Z 01006KT 10SM BKN055 12/00 A3001 RMK AO2 SLP164 T01170000
                 55004 =
2014-10-30 15:54 METAR KIPT 301954Z 34007KT 10SM OVC050 12/01 A3001 RMK AO2 SLP164 T01170006 =
2014-10-30 14:54 METAR KIPT 301854Z 32008KT 10SM BKN049 12/01 A3001 RMK AO2 SLP164 T01220006 =
2014-10-30 13:54 METAR KIPT 301754Z 36006KT 10SM OVC047 11/01 A3002 RMK AO2 SLP168 T01110006
                 10117 20078 58009 =
2014-10-30 12:54 METAR KIPT 301654Z 36007KT 10SM OVC048 11/01 A3004 RMK AO2 SLP173 T01110011 =
2014-10-30 11:54 METAR KIPT 301554Z 36005KT 10SM OVC042 11/01 A3005 RMK AO2 SLP177 T01060011 =
2014-10-30 10:54 METAR KIPT 301454Z 31009KT 10SM OVC041 10/02 A3005 RMK AO2 SLP178 T01000022
                 51008 =
2014-10-30 09:54 METAR KIPT 301354Z 25005KT 10SM SCT033 10/03 A3004 RMK AO2 SLP174 T01000033 =
2014-10-30 08:54 METAR KIPT 301254Z 00000KT 10SM FEW041 SCT048 08/04 A3004 RMK AO2 SLP175
                 T00780039 =
2014-10-30 07:54 METAR KIPT 301154Z 26006KT 10SM OVC036 08/03 A3003 RMK AO2 SLP170 70001
                 T00780033 10078 20039 53015 =

Support USWX by starting your Amazon purchase here.